sensor_id;sensor_type;location;lat;lon;timestamp;P1;durP1;ratioP1;P2;durP2;ratioP2
37931;SDS011;23758;42.640;23.302;2023-04-03T00:00:55;2.90;;;2.70;;
37931;SDS011;23758;42.640;23.302;2023-04-03T00:03:21;3.35;;;3.15;;
37931;SDS011;23758;42.640;23.302;2023-04-03T00:05:46;2.90;;;2.70;;
37931;SDS011;23758;42.640;23.302;2023-04-03T00:08:12;2.97;;;2.78;;
37931;SDS011;23758;42.640;23.302;2023-04-03T00:10:37;2.90;;;2.70;;
37931;SDS011;23758;42.640;23.302;2023-04-03T00:13:03;3.03;;;2.83;;
37931;SDS011;23758;42.640;23.302;2023-04-03T00:15:29;2.95;;;2.75;;
37931;SDS011;23758;42.640;23.302;2023-04-03T00:17:55;3.08;;;2.88;;
37931;SDS011;23758;42.640;23.302;2023-04-03T00:20:20;3.08;;;2.88;;
37931;SDS011;23758;42.640;23.302;2023-04-03T00:22:46;3.00;;;2.80;;
37931;SDS011;23758;42.640;23.302;2023-04-03T00:25:11;2.85;;;2.65;;
37931;SDS011;23758;42.640;23.302;2023-04-03T00:27:37;2.88;;;2.67;;
37931;SDS011;23758;42.640;23.302;2023-04-03T00:30:03;7.47;;;3.13;;
37931;SDS011;23758;42.640;23.302;2023-04-03T00:32:29;2.80;;;2.60;;
37931;SDS011;23758;42.640;23.302;2023-04-03T00:34:55;2.80;;;2.60;;
37931;SDS011;23758;42.640;23.302;2023-04-03T00:37:20;2.90;;;2.70;;
37931;SDS011;23758;42.640;23.302;2023-04-03T00:39:45;2.90;;;2.70;;
37931;SDS011;23758;42.640;23.302;2023-04-03T00:42:11;2.80;;;2.60;;
37931;SDS011;23758;42.640;23.302;2023-04-03T00:47:03;3.10;;;2.90;;
37931;SDS011;23758;42.640;23.302;2023-04-03T00:49:31;2.97;;;2.78;;
37931;SDS011;23758;42.640;23.302;2023-04-03T00:51:56;2.95;;;2.75;;
37931;SDS011;23758;42.640;23.302;2023-04-03T00:54:23;2.88;;;2.67;;
37931;SDS011;23758;42.640;23.302;2023-04-03T00:56:50;3.10;;;2.90;;
37931;SDS011;23758;42.640;23.302;2023-04-03T00:59:16;3.25;;;3.05;;
37931;SDS011;23758;42.640;23.302;2023-04-03T01:01:55;3.10;;;2.90;;
37931;SDS011;23758;42.640;23.302;2023-04-03T01:04:28;8.68;;;3.40;;
37931;SDS011;23758;42.640;23.302;2023-04-03T01:09:20;3.45;;;3.25;;
37931;SDS011;23758;42.640;23.302;2023-04-03T01:11:46;3.58;;;3.38;;
37931;SDS011;23758;42.640;23.302;2023-04-03T01:14:12;3.28;;;3.08;;
37931;SDS011;23758;42.640;23.302;2023-04-03T01:16:38;3.83;;;3.53;;
37931;SDS011;23758;42.640;23.302;2023-04-03T01:19:05;3.10;;;2.90;;
37931;SDS011;23758;42.640;23.302;2023-04-03T01:21:43;3.05;;;2.85;;
37931;SDS011;23758;42.640;23.302;2023-04-03T01:26:53;3.08;;;2.88;;
37931;SDS011;23758;42.640;23.302;2023-04-03T01:29:18;3.05;;;2.85;;
37931;SDS011;23758;42.640;23.302;2023-04-03T01:31:57;3.10;;;2.90;;
37931;SDS011;23758;42.640;23.302;2023-04-03T01:34:23;3.20;;;3.00;;
37931;SDS011;23758;42.640;23.302;2023-04-03T01:36:50;3.00;;;2.80;;
37931;SDS011;23758;42.640;23.302;2023-04-03T01:39:16;3.00;;;2.80;;
37931;SDS011;23758;42.640;23.302;2023-04-03T01:41:42;3.00;;;2.80;;
37931;SDS011;23758;42.640;23.302;2023-04-03T01:44:07;3.00;;;2.80;;
37931;SDS011;23758;42.640;23.302;2023-04-03T01:46:33;3.00;;;2.80;;
37931;SDS011;23758;42.640;23.302;2023-04-03T01:48:58;3.20;;;3.00;;
37931;SDS011;23758;42.640;23.302;2023-04-03T01:51:24;3.10;;;2.90;;
37931;SDS011;23758;42.640;23.302;2023-04-03T01:53:49;3.00;;;2.80;;
37931;SDS011;23758;42.640;23.302;2023-04-03T01:56:16;2.90;;;2.70;;
37931;SDS011;23758;42.640;23.302;2023-04-03T01:58:42;3.00;;;2.80;;
37931;SDS011;23758;42.640;23.302;2023-04-03T02:01:07;3.00;;;2.80;;
37931;SDS011;23758;42.640;23.302;2023-04-03T02:03:32;3.00;;;2.80;;
37931;SDS011;23758;42.640;23.302;2023-04-03T02:05:58;2.97;;;2.78;;
37931;SDS011;23758;42.640;23.302;2023-04-03T02:08:23;3.10;;;2.90;;
37931;SDS011;23758;42.640;23.302;2023-04-03T02:10:49;3.00;;;2.80;;
37931;SDS011;23758;42.640;23.302;2023-04-03T02:13:16;3.30;;;3.10;;
37931;SDS011;23758;42.640;23.302;2023-04-03T02:15:42;3.15;;;2.95;;
37931;SDS011;23758;42.640;23.302;2023-04-03T02:18:08;3.17;;;2.97;;
37931;SDS011;23758;42.640;23.302;2023-04-03T02:20:33;3.10;;;2.90;;
37931;SDS011;23758;42.640;23.302;2023-04-03T02:22:59;3.03;;;2.83;;
37931;SDS011;23758;42.640;23.302;2023-04-03T02:25:24;3.08;;;2.88;;
37931;SDS011;23758;42.640;23.302;2023-04-03T02:27:50;3.35;;;3.15;;
37931;SDS011;23758;42.640;23.302;2023-04-03T02:30:15;3.10;;;2.90;;
37931;SDS011;23758;42.640;23.302;2023-04-03T02:32:41;3.10;;;2.90;;
37931;SDS011;23758;42.640;23.302;2023-04-03T02:35:07;3.15;;;2.95;;
37931;SDS011;23758;42.640;23.302;2023-04-03T02:37:33;3.50;;;3.20;;
37931;SDS011;23758;42.640;23.302;2023-04-03T02:39:59;3.10;;;2.90;;
37931;SDS011;23758;42.640;23.302;2023-04-03T02:42:24;3.20;;;3.00;;
37931;SDS011;23758;42.640;23.302;2023-04-03T02:44:49;3.00;;;2.80;;
37931;SDS011;23758;42.640;23.302;2023-04-03T02:47:15;3.15;;;2.95;;
37931;SDS011;23758;42.640;23.302;2023-04-03T02:49:40;3.10;;;2.90;;
37931;SDS011;23758;42.640;23.302;2023-04-03T02:52:08;3.42;;;3.22;;
37931;SDS011;23758;42.640;23.302;2023-04-03T02:54:34;3.20;;;3.00;;
37931;SDS011;23758;42.640;23.302;2023-04-03T02:56:59;3.00;;;2.80;;
37931;SDS011;23758;42.640;23.302;2023-04-03T02:59:25;3.10;;;2.90;;
37931;SDS011;23758;42.640;23.302;2023-04-03T03:01:51;3.13;;;2.92;;
37931;SDS011;23758;42.640;23.302;2023-04-03T03:04:16;3.35;;;3.15;;
37931;SDS011;23758;42.640;23.302;2023-04-03T03:06:41;3.20;;;3.00;;
37931;SDS011;23758;42.640;23.302;2023-04-03T03:09:07;2.90;;;2.70;;
37931;SDS011;23758;42.640;23.302;2023-04-03T03:11:32;3.15;;;2.95;;
37931;SDS011;23758;42.640;23.302;2023-04-03T03:13:58;3.15;;;2.95;;
37931;SDS011;23758;42.640;23.302;2023-04-03T03:16:23;3.13;;;2.92;;
37931;SDS011;23758;42.640;23.302;2023-04-03T03:18:49;3.13;;;2.92;;
37931;SDS011;23758;42.640;23.302;2023-04-03T03:21:14;3.05;;;2.85;;
37931;SDS011;23758;42.640;23.302;2023-04-03T03:23:40;3.45;;;3.25;;
37931;SDS011;23758;42.640;23.302;2023-04-03T03:26:07;3.25;;;3.03;;
37931;SDS011;23758;42.640;23.302;2023-04-03T03:28:34;3.30;;;3.10;;
37931;SDS011;23758;42.640;23.302;2023-04-03T03:31:01;3.40;;;3.20;;
37931;SDS011;23758;42.640;23.302;2023-04-03T03:33:27;3.20;;;3.00;;
37931;SDS011;23758;42.640;23.302;2023-04-03T03:35:53;3.00;;;2.80;;
37931;SDS011;23758;42.640;23.302;2023-04-03T03:38:19;3.05;;;2.85;;
37931;SDS011;23758;42.640;23.302;2023-04-03T03:40:46;3.20;;;3.00;;
37931;SDS011;23758;42.640;23.302;2023-04-03T03:43:12;3.30;;;3.10;;
37931;SDS011;23758;42.640;23.302;2023-04-03T03:45:37;3.10;;;2.90;;
37931;SDS011;23758;42.640;23.302;2023-04-03T03:48:03;3.00;;;2.80;;
37931;SDS011;23758;42.640;23.302;2023-04-03T03:50:28;2.90;;;2.70;;
37931;SDS011;23758;42.640;23.302;2023-04-03T03:52:54;3.10;;;2.90;;
37931;SDS011;23758;42.640;23.302;2023-04-03T03:55:19;3.00;;;2.80;;
37931;SDS011;23758;42.640;23.302;2023-04-03T03:57:44;3.28;;;3.08;;
37931;SDS011;23758;42.640;23.302;2023-04-03T04:00:10;3.10;;;2.90;;
37931;SDS011;23758;42.640;23.302;2023-04-03T04:02:36;3.20;;;3.00;;
37931;SDS011;23758;42.640;23.302;2023-04-03T04:05:01;3.10;;;2.90;;
37931;SDS011;23758;42.640;23.302;2023-04-03T04:07:27;3.00;;;2.80;;
37931;SDS011;23758;42.640;23.302;2023-04-03T04:09:53;3.17;;;2.97;;
37931;SDS011;23758;42.640;23.302;2023-04-03T04:12:19;3.20;;;3.00;;
37931;SDS011;23758;42.640;23.302;2023-04-03T04:14:44;3.10;;;2.90;;
37931;SDS011;23758;42.640;23.302;2023-04-03T04:17:11;3.10;;;2.90;;
37931;SDS011;23758;42.640;23.302;2023-04-03T04:19:37;3.10;;;2.90;;
37931;SDS011;23758;42.640;23.302;2023-04-03T04:22:03;3.20;;;3.00;;
37931;SDS011;23758;42.640;23.302;2023-04-03T04:24:28;3.03;;;2.83;;
37931;SDS011;23758;42.640;23.302;2023-04-03T04:26:54;3.10;;;2.90;;
37931;SDS011;23758;42.640;23.302;2023-04-03T04:29:20;3.03;;;2.83;;
37931;SDS011;23758;42.640;23.302;2023-04-03T04:31:45;3.00;;;2.80;;
37931;SDS011;23758;42.640;23.302;2023-04-03T04:34:11;3.30;;;3.10;;
37931;SDS011;23758;42.640;23.302;2023-04-03T04:36:37;3.30;;;3.10;;
37931;SDS011;23758;42.640;23.302;2023-04-03T04:39:03;3.50;;;3.30;;
37931;SDS011;23758;42.640;23.302;2023-04-03T04:41:29;4.07;;;3.63;;
37931;SDS011;23758;42.640;23.302;2023-04-03T04:43:54;3.28;;;3.08;;
37931;SDS011;23758;42.640;23.302;2023-04-03T04:46:20;3.00;;;2.80;;
37931;SDS011;23758;42.640;23.302;2023-04-03T04:48:46;3.20;;;3.00;;
37931;SDS011;23758;42.640;23.302;2023-04-03T04:51:13;2.90;;;2.70;;
37931;SDS011;23758;42.640;23.302;2023-04-03T04:53:39;3.05;;;2.85;;
37931;SDS011;23758;42.640;23.302;2023-04-03T04:56:04;2.90;;;2.70;;
37931;SDS011;23758;42.640;23.302;2023-04-03T04:58:30;3.63;;;3.30;;
37931;SDS011;23758;42.640;23.302;2023-04-03T05:00:59;3.10;;;2.90;;
37931;SDS011;23758;42.640;23.302;2023-04-03T05:03:32;3.05;;;2.85;;
37931;SDS011;23758;42.640;23.302;2023-04-03T05:05:57;3.42;;;3.13;;
37931;SDS011;23758;42.640;23.302;2023-04-03T05:08:23;2.90;;;2.70;;
37931;SDS011;23758;42.640;23.302;2023-04-03T05:10:49;3.10;;;2.90;;
37931;SDS011;23758;42.640;23.302;2023-04-03T05:13:14;3.00;;;2.80;;
37931;SDS011;23758;42.640;23.302;2023-04-03T05:15:40;2.90;;;2.70;;
37931;SDS011;23758;42.640;23.302;2023-04-03T05:18:05;2.80;;;2.60;;
37931;SDS011;23758;42.640;23.302;2023-04-03T05:20:31;2.88;;;2.67;;
37931;SDS011;23758;42.640;23.302;2023-04-03T05:22:57;2.80;;;2.60;;
37931;SDS011;23758;42.640;23.302;2023-04-03T05:25:23;3.20;;;3.00;;
37931;SDS011;23758;42.640;23.302;2023-04-03T05:27:48;2.80;;;2.60;;
37931;SDS011;23758;42.640;23.302;2023-04-03T05:30:14;2.92;;;2.72;;
37931;SDS011;23758;42.640;23.302;2023-04-03T05:32:40;2.90;;;2.70;;
37931;SDS011;23758;42.640;23.302;2023-04-03T05:35:06;3.20;;;3.00;;
37931;SDS011;23758;42.640;23.302;2023-04-03T05:37:32;3.30;;;3.10;;
37931;SDS011;23758;42.640;23.302;2023-04-03T05:39:58;3.08;;;2.88;;
37931;SDS011;23758;42.640;23.302;2023-04-03T05:42:23;3.10;;;2.90;;
37931;SDS011;23758;42.640;23.302;2023-04-03T05:44:49;2.95;;;2.75;;
37931;SDS011;23758;42.640;23.302;2023-04-03T05:47:15;2.90;;;2.70;;
37931;SDS011;23758;42.640;23.302;2023-04-03T05:49:41;2.97;;;2.78;;
37931;SDS011;23758;42.640;23.302;2023-04-03T05:52:28;3.25;;;3.05;;
37931;SDS011;23758;42.640;23.302;2023-04-03T05:54:53;2.90;;;2.70;;
37931;SDS011;23758;42.640;23.302;2023-04-03T05:57:19;3.05;;;2.85;;
37931;SDS011;23758;42.640;23.302;2023-04-03T05:59:45;3.47;;;3.20;;
37931;SDS011;23758;42.640;23.302;2023-04-03T06:02:21;2.70;;;2.50;;
37931;SDS011;23758;42.640;23.302;2023-04-03T06:04:47;2.90;;;2.70;;
37931;SDS011;23758;42.640;23.302;2023-04-03T06:07:17;2.80;;;2.60;;
37931;SDS011;23758;42.640;23.302;2023-04-03T06:09:46;3.05;;;2.85;;
37931;SDS011;23758;42.640;23.302;2023-04-03T06:12:12;3.30;;;3.10;;
37931;SDS011;23758;42.640;23.302;2023-04-03T06:14:37;2.80;;;2.60;;
37931;SDS011;23758;42.640;23.302;2023-04-03T06:17:03;2.65;;;2.50;;
37931;SDS011;23758;42.640;23.302;2023-04-03T06:19:29;2.90;;;2.70;;
37931;SDS011;23758;42.640;23.302;2023-04-03T06:21:55;2.90;;;2.70;;
37931;SDS011;23758;42.640;23.302;2023-04-03T06:24:21;2.80;;;2.60;;
37931;SDS011;23758;42.640;23.302;2023-04-03T06:26:49;2.95;;;2.70;;
37931;SDS011;23758;42.640;23.302;2023-04-03T06:29:16;3.10;;;2.90;;
37931;SDS011;23758;42.640;23.302;2023-04-03T06:31:42;2.90;;;2.70;;
37931;SDS011;23758;42.640;23.302;2023-04-03T06:34:08;2.80;;;2.60;;
37931;SDS011;23758;42.640;23.302;2023-04-03T06:36:34;3.00;;;2.80;;
37931;SDS011;23758;42.640;23.302;2023-04-03T06:38:59;3.42;;;3.20;;
37931;SDS011;23758;42.640;23.302;2023-04-03T06:41:26;3.22;;;3.03;;
37931;SDS011;23758;42.640;23.302;2023-04-03T06:43:52;2.80;;;2.60;;
37931;SDS011;23758;42.640;23.302;2023-04-03T06:46:18;2.70;;;2.50;;
37931;SDS011;23758;42.640;23.302;2023-04-03T06:48:45;2.70;;;2.50;;
37931;SDS011;23758;42.640;23.302;2023-04-03T06:51:27;2.92;;;2.72;;
37931;SDS011;23758;42.640;23.302;2023-04-03T06:53:54;2.90;;;2.70;;
37931;SDS011;23758;42.640;23.302;2023-04-03T06:56:20;2.80;;;2.60;;
37931;SDS011;23758;42.640;23.302;2023-04-03T06:58:46;3.00;;;2.80;;
37931;SDS011;23758;42.640;23.302;2023-04-03T07:01:12;3.05;;;2.85;;
37931;SDS011;23758;42.640;23.302;2023-04-03T07:03:39;2.80;;;2.60;;
37931;SDS011;23758;42.640;23.302;2023-04-03T07:06:05;2.63;;;2.40;;
37931;SDS011;23758;42.640;23.302;2023-04-03T07:08:32;2.70;;;2.50;;
37931;SDS011;23758;42.640;23.302;2023-04-03T07:10:58;2.97;;;2.78;;
37931;SDS011;23758;42.640;23.302;2023-04-03T07:13:24;3.00;;;2.80;;
37931;SDS011;23758;42.640;23.302;2023-04-03T07:15:49;2.80;;;2.60;;
37931;SDS011;23758;42.640;23.302;2023-04-03T07:18:15;2.85;;;2.65;;
37931;SDS011;23758;42.640;23.302;2023-04-03T07:20:41;2.83;;;2.63;;
37931;SDS011;23758;42.640;23.302;2023-04-03T07:23:07;2.50;;;2.40;;
37931;SDS011;23758;42.640;23.302;2023-04-03T07:25:33;2.85;;;2.65;;
37931;SDS011;23758;42.640;23.302;2023-04-03T07:27:59;2.83;;;2.63;;
37931;SDS011;23758;42.640;23.302;2023-04-03T07:30:24;2.90;;;2.70;;
37931;SDS011;23758;42.640;23.302;2023-04-03T07:32:50;2.70;;;2.50;;
37931;SDS011;23758;42.640;23.302;2023-04-03T07:35:16;2.85;;;2.65;;
37931;SDS011;23758;42.640;23.302;2023-04-03T07:37:42;2.55;;;2.35;;
37931;SDS011;23758;42.640;23.302;2023-04-03T07:40:08;3.13;;;2.83;;
37931;SDS011;23758;42.640;23.302;2023-04-03T07:42:34;2.50;;;2.40;;
37931;SDS011;23758;42.640;23.302;2023-04-03T07:45:00;2.55;;;2.40;;
37931;SDS011;23758;42.640;23.302;2023-04-03T07:47:26;2.50;;;2.40;;
37931;SDS011;23758;42.640;23.302;2023-04-03T07:49:52;2.92;;;2.72;;
37931;SDS011;23758;42.640;23.302;2023-04-03T07:52:17;2.90;;;2.70;;
37931;SDS011;23758;42.640;23.302;2023-04-03T07:54:43;3.15;;;2.88;;
37931;SDS011;23758;42.640;23.302;2023-04-03T07:57:08;2.88;;;2.67;;
37931;SDS011;23758;42.640;23.302;2023-04-03T07:59:33;2.70;;;2.50;;
37931;SDS011;23758;42.640;23.302;2023-04-03T08:01:59;2.60;;;2.40;;
37931;SDS011;23758;42.640;23.302;2023-04-03T08:04:24;2.80;;;2.60;;
37931;SDS011;23758;42.640;23.302;2023-04-03T08:06:51;2.40;;;2.30;;
37931;SDS011;23758;42.640;23.302;2023-04-03T08:09:17;2.42;;;2.30;;
37931;SDS011;23758;42.640;23.302;2023-04-03T08:11:43;2.58;;;2.40;;
37931;SDS011;23758;42.640;23.302;2023-04-03T08:14:10;2.88;;;2.67;;
37931;SDS011;23758;42.640;23.302;2023-04-03T08:16:40;2.35;;;2.20;;
37931;SDS011;23758;42.640;23.302;2023-04-03T08:19:06;2.55;;;2.40;;
37931;SDS011;23758;42.640;23.302;2023-04-03T08:21:32;2.40;;;2.30;;
37931;SDS011;23758;42.640;23.302;2023-04-03T08:23:58;2.72;;;2.53;;
37931;SDS011;23758;42.640;23.302;2023-04-03T08:26:23;2.42;;;2.33;;
37931;SDS011;23758;42.640;23.302;2023-04-03T08:28:49;2.50;;;2.40;;
37931;SDS011;23758;42.640;23.302;2023-04-03T08:31:16;4.10;;;2.63;;
37931;SDS011;23758;42.640;23.302;2023-04-03T08:33:43;2.88;;;2.67;;
37931;SDS011;23758;42.640;23.302;2023-04-03T08:36:23;2.92;;;2.72;;
37931;SDS011;23758;42.640;23.302;2023-04-03T08:38:50;2.70;;;2.50;;
37931;SDS011;23758;42.640;23.302;2023-04-03T08:41:29;2.83;;;2.63;;
37931;SDS011;23758;42.640;23.302;2023-04-03T08:49:27;2.55;;;2.35;;
37931;SDS011;23758;42.640;23.302;2023-04-03T08:51:56;2.20;;;2.10;;
37931;SDS011;23758;42.640;23.302;2023-04-03T08:54:34;2.75;;;2.55;;
37931;SDS011;23758;42.640;23.302;2023-04-03T08:57:09;2.83;;;2.63;;
37931;SDS011;23758;42.640;23.302;2023-04-03T08:59:35;3.03;;;2.65;;
37931;SDS011;23758;42.640;23.302;2023-04-03T09:02:04;2.78;;;2.58;;
37931;SDS011;23758;42.640;23.302;2023-04-03T09:04:38;2.75;;;2.55;;
37931;SDS011;23758;42.640;23.302;2023-04-03T09:07:08;2.47;;;2.30;;
37931;SDS011;23758;42.640;23.302;2023-04-03T09:09:41;2.95;;;2.75;;
37931;SDS011;23758;42.640;23.302;2023-04-03T09:23:49;2.30;;;2.20;;
37931;SDS011;23758;42.640;23.302;2023-04-03T09:26:26;2.30;;;2.20;;
37931;SDS011;23758;42.640;23.302;2023-04-03T09:28:56;2.30;;;2.20;;
37931;SDS011;23758;42.640;23.302;2023-04-03T09:31:25;2.30;;;2.20;;
37931;SDS011;23758;42.640;23.302;2023-04-03T09:41:41;2.20;;;2.10;;
37931;SDS011;23758;42.640;23.302;2023-04-03T09:44:20;2.20;;;2.10;;
37931;SDS011;23758;42.640;23.302;2023-04-03T09:46:50;2.20;;;2.10;;
37931;SDS011;23758;42.640;23.302;2023-04-03T09:49:16;2.03;;;1.92;;
37931;SDS011;23758;42.640;23.302;2023-04-03T09:51:42;2.15;;;2.05;;
37931;SDS011;23758;42.640;23.302;2023-04-03T09:57:09;2.10;;;2.00;;
37931;SDS011;23758;42.640;23.302;2023-04-03T09:59:37;2.10;;;2.00;;
37931;SDS011;23758;42.640;23.302;2023-04-03T10:02:24;2.10;;;2.00;;
37931;SDS011;23758;42.640;23.302;2023-04-03T10:04:56;2.00;;;1.90;;
37931;SDS011;23758;42.640;23.302;2023-04-03T10:07:29;2.10;;;2.00;;
37931;SDS011;23758;42.640;23.302;2023-04-03T10:09:57;2.00;;;1.90;;
37931;SDS011;23758;42.640;23.302;2023-04-03T10:12:23;2.20;;;2.10;;
37931;SDS011;23758;42.640;23.302;2023-04-03T10:19:56;2.10;;;2.00;;
37931;SDS011;23758;42.640;23.302;2023-04-03T10:22:40;2.30;;;2.20;;
37931;SDS011;23758;42.640;23.302;2023-04-03T10:30:37;2.28;;;2.17;;
37931;SDS011;23758;42.640;23.302;2023-04-03T10:35:53;2.20;;;2.10;;
37931;SDS011;23758;42.640;23.302;2023-04-03T10:38:43;2.20;;;2.10;;
37931;SDS011;23758;42.640;23.302;2023-04-03T10:46:50;2.63;;;2.42;;
37931;SDS011;23758;42.640;23.302;2023-04-03T10:57:51;2.35;;;2.25;;
37931;SDS011;23758;42.640;23.302;2023-04-03T11:00:52;2.10;;;2.00;;
37931;SDS011;23758;42.640;23.302;2023-04-03T11:03:17;2.30;;;2.20;;
37931;SDS011;23758;42.640;23.302;2023-04-03T11:05:51;2.20;;;2.10;;
37931;SDS011;23758;42.640;23.302;2023-04-03T11:08:25;2.53;;;2.38;;
37931;SDS011;23758;42.640;23.302;2023-04-03T11:10:55;2.20;;;2.10;;
37931;SDS011;23758;42.640;23.302;2023-04-03T11:13:30;2.40;;;2.30;;
37931;SDS011;23758;42.640;23.302;2023-04-03T11:15:59;2.70;;;2.50;;
37931;SDS011;23758;42.640;23.302;2023-04-03T11:21:29;2.70;;;2.50;;
37931;SDS011;23758;42.640;23.302;2023-04-03T11:24:00;2.85;;;2.65;;
37931;SDS011;23758;42.640;23.302;2023-04-03T11:26:29;2.90;;;2.70;;
37931;SDS011;23758;42.640;23.302;2023-04-03T11:29:08;3.05;;;2.85;;
37931;SDS011;23758;42.640;23.302;2023-04-03T11:34:15;2.78;;;2.58;;
37931;SDS011;23758;42.640;23.302;2023-04-03T11:37:01;3.13;;;2.92;;
37931;SDS011;23758;42.640;23.302;2023-04-03T11:39:33;3.10;;;2.90;;
37931;SDS011;23758;42.640;23.302;2023-04-03T11:42:16;2.90;;;2.70;;
37931;SDS011;23758;42.640;23.302;2023-04-03T11:44:50;2.90;;;2.70;;
37931;SDS011;23758;42.640;23.302;2023-04-03T11:53:00;3.30;;;3.10;;
37931;SDS011;23758;42.640;23.302;2023-04-03T12:08:25;2.73;;;2.53;;
37931;SDS011;23758;42.640;23.302;2023-04-03T12:14:16;2.90;;;2.70;;
37931;SDS011;23758;42.640;23.302;2023-04-03T12:16:56;3.00;;;2.80;;
37931;SDS011;23758;42.640;23.302;2023-04-03T12:24:31;3.08;;;2.88;;
37931;SDS011;23758;42.640;23.302;2023-04-03T12:32:40;2.95;;;2.75;;
37931;SDS011;23758;42.640;23.302;2023-04-03T12:48:30;2.95;;;2.75;;
37931;SDS011;23758;42.640;23.302;2023-04-03T12:50:57;3.03;;;2.83;;
37931;SDS011;23758;42.640;23.302;2023-04-03T12:53:27;2.50;;;2.40;;
37931;SDS011;23758;42.640;23.302;2023-04-03T12:55:56;2.80;;;2.60;;
37931;SDS011;23758;42.640;23.302;2023-04-03T12:58:24;2.80;;;2.60;;
37931;SDS011;23758;42.640;23.302;2023-04-03T13:01:03;3.10;;;2.90;;
37931;SDS011;23758;42.640;23.302;2023-04-03T13:03:35;3.42;;;3.22;;
37931;SDS011;23758;42.640;23.302;2023-04-03T13:06:04;2.90;;;2.70;;
37931;SDS011;23758;42.640;23.302;2023-04-03T13:08:30;2.90;;;2.70;;
37931;SDS011;23758;42.640;23.302;2023-04-03T13:11:01;3.05;;;2.85;;
37931;SDS011;23758;42.640;23.302;2023-04-03T13:13:29;2.90;;;2.70;;
37931;SDS011;23758;42.640;23.302;2023-04-03T13:15:55;2.83;;;2.63;;
37931;SDS011;23758;42.640;23.302;2023-04-03T13:21:15;2.83;;;2.63;;
37931;SDS011;23758;42.640;23.302;2023-04-03T13:23:44;2.80;;;2.60;;
37931;SDS011;23758;42.640;23.302;2023-04-03T13:26:11;2.85;;;2.65;;
37931;SDS011;23758;42.640;23.302;2023-04-03T13:28:39;2.92;;;2.72;;
37931;SDS011;23758;42.640;23.302;2023-04-03T13:31:07;2.80;;;2.60;;
37931;SDS011;23758;42.640;23.302;2023-04-03T13:33:40;2.80;;;2.60;;
37931;SDS011;23758;42.640;23.302;2023-04-03T13:36:21;3.05;;;2.85;;
37931;SDS011;23758;42.640;23.302;2023-04-03T13:39:03;3.05;;;2.85;;
37931;SDS011;23758;42.640;23.302;2023-04-03T13:41:37;3.60;;;3.40;;
37931;SDS011;23758;42.640;23.302;2023-04-03T13:46:54;3.10;;;2.90;;
37931;SDS011;23758;42.640;23.302;2023-04-03T13:49:32;3.10;;;2.90;;
37931;SDS011;23758;42.640;23.302;2023-04-03T13:54:48;3.10;;;2.90;;
37931;SDS011;23758;42.640;23.302;2023-04-03T13:57:17;3.20;;;3.00;;
37931;SDS011;23758;42.640;23.302;2023-04-03T13:59:43;3.15;;;2.95;;
37931;SDS011;23758;42.640;23.302;2023-04-03T14:07:11;3.42;;;3.22;;
37931;SDS011;23758;42.640;23.302;2023-04-03T14:09:37;3.55;;;3.35;;
37931;SDS011;23758;42.640;23.302;2023-04-03T14:12:17;3.72;;;3.45;;
37931;SDS011;23758;42.640;23.302;2023-04-03T14:14:50;3.75;;;3.55;;
37931;SDS011;23758;42.640;23.302;2023-04-03T14:17:17;4.40;;;4.10;;
37931;SDS011;23758;42.640;23.302;2023-04-03T14:19:47;4.30;;;4.00;;
37931;SDS011;23758;42.640;23.302;2023-04-03T14:22:18;4.10;;;3.80;;
37931;SDS011;23758;42.640;23.302;2023-04-03T14:24:48;4.55;;;4.15;;
37931;SDS011;23758;42.640;23.302;2023-04-03T14:27:20;4.60;;;4.30;;
37931;SDS011;23758;42.640;23.302;2023-04-03T14:29:48;4.43;;;4.13;;
37931;SDS011;23758;42.640;23.302;2023-04-03T14:32:15;3.78;;;3.58;;
37931;SDS011;23758;42.640;23.302;2023-04-03T14:34:42;3.80;;;3.58;;
37931;SDS011;23758;42.640;23.302;2023-04-03T14:37:12;3.47;;;3.28;;
37931;SDS011;23758;42.640;23.302;2023-04-03T14:39:40;3.70;;;3.50;;
37931;SDS011;23758;42.640;23.302;2023-04-03T14:42:06;3.90;;;3.67;;
37931;SDS011;23758;42.640;23.302;2023-04-03T14:44:37;4.50;;;4.20;;
37931;SDS011;23758;42.640;23.302;2023-04-03T14:47:03;3.70;;;3.50;;
37931;SDS011;23758;42.640;23.302;2023-04-03T14:49:28;3.88;;;3.67;;
37931;SDS011;23758;42.640;23.302;2023-04-03T14:51:55;4.03;;;3.75;;
37931;SDS011;23758;42.640;23.302;2023-04-03T14:54:23;3.90;;;3.67;;
37931;SDS011;23758;42.640;23.302;2023-04-03T14:56:54;3.90;;;3.70;;
37931;SDS011;23758;42.640;23.302;2023-04-03T14:59:21;4.05;;;3.78;;
37931;SDS011;23758;42.640;23.302;2023-04-03T15:01:47;4.40;;;4.10;;
37931;SDS011;23758;42.640;23.302;2023-04-03T15:04:13;4.10;;;3.80;;
37931;SDS011;23758;42.640;23.302;2023-04-03T15:06:40;3.88;;;3.67;;
37931;SDS011;23758;42.640;23.302;2023-04-03T15:09:09;3.70;;;3.50;;
37931;SDS011;23758;42.640;23.302;2023-04-03T15:11:46;4.18;;;3.88;;
37931;SDS011;23758;42.640;23.302;2023-04-03T15:14:12;3.67;;;3.47;;
37931;SDS011;23758;42.640;23.302;2023-04-03T15:16:37;3.58;;;3.38;;
37931;SDS011;23758;42.640;23.302;2023-04-03T15:19:03;3.63;;;3.42;;
37931;SDS011;23758;42.640;23.302;2023-04-03T15:21:28;3.80;;;3.60;;
37931;SDS011;23758;42.640;23.302;2023-04-03T15:23:54;3.75;;;3.55;;
37931;SDS011;23758;42.640;23.302;2023-04-03T15:26:19;3.60;;;3.40;;
37931;SDS011;23758;42.640;23.302;2023-04-03T15:28:45;3.70;;;3.50;;
37931;SDS011;23758;42.640;23.302;2023-04-03T15:31:11;4.65;;;4.25;;
37931;SDS011;23758;42.640;23.302;2023-04-03T15:33:37;3.63;;;3.42;;
37931;SDS011;23758;42.640;23.302;2023-04-03T15:36:03;3.53;;;3.33;;
37931;SDS011;23758;42.640;23.302;2023-04-03T15:38:29;3.78;;;3.58;;
37931;SDS011;23758;42.640;23.302;2023-04-03T15:40:55;3.40;;;3.20;;
37931;SDS011;23758;42.640;23.302;2023-04-03T15:43:21;3.38;;;3.17;;
37931;SDS011;23758;42.640;23.302;2023-04-03T15:45:47;3.40;;;3.20;;
37931;SDS011;23758;42.640;23.302;2023-04-03T15:48:12;3.40;;;3.20;;
37931;SDS011;23758;42.640;23.302;2023-04-03T15:50:38;3.40;;;3.20;;
37931;SDS011;23758;42.640;23.302;2023-04-03T15:53:04;3.30;;;3.10;;
37931;SDS011;23758;42.640;23.302;2023-04-03T15:55:31;3.20;;;3.00;;
37931;SDS011;23758;42.640;23.302;2023-04-03T15:57:58;3.15;;;2.95;;
37931;SDS011;23758;42.640;23.302;2023-04-03T16:00:24;3.25;;;3.05;;
37931;SDS011;23758;42.640;23.302;2023-04-03T16:02:51;3.17;;;2.97;;
37931;SDS011;23758;42.640;23.302;2023-04-03T16:05:18;3.10;;;2.90;;
37931;SDS011;23758;42.640;23.302;2023-04-03T16:07:44;3.30;;;3.10;;
37931;SDS011;23758;42.640;23.302;2023-04-03T16:10:10;3.20;;;3.00;;
37931;SDS011;23758;42.640;23.302;2023-04-03T16:12:36;3.40;;;3.20;;
37931;SDS011;23758;42.640;23.302;2023-04-03T16:15:02;3.30;;;3.10;;
37931;SDS011;23758;42.640;23.302;2023-04-03T16:17:28;3.20;;;3.00;;
37931;SDS011;23758;42.640;23.302;2023-04-03T16:19:54;3.30;;;3.10;;
37931;SDS011;23758;42.640;23.302;2023-04-03T16:22:21;3.10;;;2.90;;
37931;SDS011;23758;42.640;23.302;2023-04-03T16:24:47;3.20;;;3.00;;
37931;SDS011;23758;42.640;23.302;2023-04-03T16:27:12;3.47;;;3.28;;
37931;SDS011;23758;42.640;23.302;2023-04-03T16:29:38;3.30;;;3.10;;
37931;SDS011;23758;42.640;23.302;2023-04-03T16:32:03;3.30;;;3.10;;
37931;SDS011;23758;42.640;23.302;2023-04-03T16:34:29;3.30;;;3.10;;
37931;SDS011;23758;42.640;23.302;2023-04-03T16:36:57;3.42;;;3.22;;
37931;SDS011;23758;42.640;23.302;2023-04-03T16:39:22;3.40;;;3.20;;
37931;SDS011;23758;42.640;23.302;2023-04-03T16:41:48;3.50;;;3.30;;
37931;SDS011;23758;42.640;23.302;2023-04-03T16:44:13;3.40;;;3.20;;